createdAt,value
2019-03-11T00:01:35.736Z,4.15
2019-03-11T00:03:43.054Z,4.29
2019-03-11T00:05:50.442Z,4.39
2019-03-11T00:07:57.652Z,4.43
2019-03-11T00:10:05.447Z,4.39
2019-03-11T00:12:12.766Z,4.31
2019-03-11T00:14:20.122Z,4.38
2019-03-11T00:16:27.415Z,4.24
2019-03-11T00:18:34.700Z,4.23
2019-03-11T00:20:42.008Z,4.20
2019-03-11T00:22:49.380Z,4.03
2019-03-11T00:24:56.962Z,3.97
2019-03-11T00:27:04.319Z,3.92
2019-03-11T00:29:11.673Z,3.86
2019-03-11T00:31:19.034Z,3.66
2019-03-11T00:33:26.445Z,3.59
2019-03-11T00:35:33.784Z,3.41
2019-03-11T00:37:41.125Z,3.33
2019-03-11T00:39:48.449Z,3.12
2019-03-11T00:41:55.835Z,3.00
2019-03-11T00:44:03.123Z,2.92
2019-03-11T00:46:10.457Z,2.85
2019-03-11T00:48:17.748Z,2.85
2019-03-11T00:50:25.100Z,2.82
2019-03-11T00:52:32.495Z,2.76
2019-03-11T00:54:40.013Z,2.74
2019-03-11T00:56:47.332Z,2.70
2019-03-11T00:58:54.767Z,2.63
2019-03-11T01:01:02.102Z,2.52
2019-03-11T01:03:09.386Z,2.45
2019-03-11T01:05:16.761Z,2.32
2019-03-11T01:07:24.101Z,2.30
2019-03-11T01:09:32.071Z,2.40
2019-03-11T01:11:39.392Z,2.26
2019-03-11T01:13:47.714Z,2.20
2019-03-11T01:15:55.052Z,2.16
2019-03-11T01:18:02.502Z,2.12
2019-03-11T01:20:10.265Z,2.05
2019-03-11T01:22:17.636Z,2.15
2019-03-11T01:24:24.951Z,2.14
2019-03-11T01:26:32.372Z,2.13
2019-03-11T01:28:39.740Z,2.02
2019-03-11T01:30:47.544Z,1.91
2019-03-11T01:32:54.930Z,1.97
2019-03-11T01:35:02.383Z,1.82
2019-03-11T01:37:09.727Z,1.77
2019-03-11T01:39:17.132Z,1.83
2019-03-11T01:41:24.543Z,1.59
2019-03-11T01:43:31.949Z,1.75
2019-03-11T01:45:39.462Z,1.71
2019-03-11T01:47:47.477Z,1.68
2019-03-11T01:49:54.869Z,1.76
2019-03-11T01:52:02.298Z,1.71
2019-03-11T01:54:09.695Z,1.58
2019-03-11T01:56:18.087Z,1.71
2019-03-11T01:58:25.444Z,1.50
2019-03-11T02:00:32.994Z,1.67
2019-03-11T02:02:40.555Z,1.54
2019-03-11T02:04:47.924Z,1.51
2019-03-11T02:06:55.289Z,1.49
2019-03-11T02:09:02.810Z,1.37
2019-03-11T02:11:10.174Z,1.27
2019-03-11T02:13:17.680Z,1.39
2019-03-11T02:15:25.406Z,1.29
2019-03-11T02:17:32.807Z,1.19
2019-03-11T02:19:40.170Z,1.40
2019-03-11T02:21:47.520Z,1.30
2019-03-11T02:23:54.962Z,1.27
2019-03-11T02:26:02.870Z,1.32
2019-03-11T02:28:11.142Z,1.32
2019-03-11T02:30:18.961Z,1.06
2019-03-11T02:32:28.721Z,1.15
2019-03-11T02:34:35.463Z,1.09
2019-03-11T02:36:42.762Z,0.97
2019-03-11T02:38:50.352Z,1.06
2019-03-11T02:40:57.761Z,1.16
2019-03-11T02:43:05.167Z,1.18
2019-03-11T02:45:12.807Z,1.09
2019-03-11T02:47:20.716Z,1.11
2019-03-11T02:49:28.178Z,0.98
2019-03-11T02:51:35.808Z,1.27
2019-03-11T02:53:43.325Z,1.28
2019-03-11T02:55:51.433Z,1.32
2019-03-11T02:57:59.001Z,1.32
2019-03-11T03:00:08.224Z,1.17
2019-03-11T03:02:26.356Z,1.18
2019-03-11T03:04:38.990Z,1.16
2019-03-11T03:06:46.626Z,1.15
2019-03-11T03:08:54.101Z,1.26
2019-03-11T03:11:01.577Z,1.01
2019-03-11T03:13:08.873Z,1.21
2019-03-11T03:15:16.223Z,1.08
2019-03-11T03:17:23.688Z,1.23
2019-03-11T03:19:30.973Z,1.23
2019-03-11T03:21:38.406Z,1.12
2019-03-11T03:23:45.734Z,1.27
2019-03-11T03:25:53.120Z,1.19
2019-03-11T03:28:00.580Z,1.19
2019-03-11T03:30:12.116Z,1.26
2019-03-11T03:32:19.346Z,1.38
2019-03-11T03:34:26.761Z,1.25
2019-03-11T03:36:34.184Z,1.32
2019-03-11T03:38:41.544Z,1.32
2019-03-11T03:40:48.837Z,1.29
2019-03-11T03:42:56.838Z,1.24
2019-03-11T03:45:25.355Z,1.14
2019-03-11T03:47:32.804Z,1.18
2019-03-11T03:49:40.298Z,1.16
2019-03-11T03:51:47.700Z,1.10
2019-03-11T03:53:55.168Z,1.30
2019-03-11T03:56:02.676Z,1.26
2019-03-11T03:58:10.082Z,1.31
2019-03-11T04:00:17.914Z,1.34
2019-03-11T04:02:25.381Z,1.37
2019-03-11T04:04:32.865Z,1.34
2019-03-11T04:06:40.188Z,1.34
2019-03-11T04:08:47.537Z,1.39
2019-03-11T04:10:55.027Z,1.40
2019-03-11T04:13:02.515Z,1.35
2019-03-11T04:15:10.987Z,1.34
2019-03-11T04:17:18.426Z,1.35
2019-03-11T04:19:29.060Z,1.33
2019-03-11T04:21:35.274Z,1.35
2019-03-11T04:23:42.761Z,1.49
2019-03-11T04:25:50.291Z,1.47
2019-03-11T04:27:57.896Z,1.48
2019-03-11T04:30:06.538Z,1.45
2019-03-11T04:32:13.892Z,1.39
2019-03-11T04:34:21.442Z,1.41
2019-03-11T04:36:28.951Z,1.35
2019-03-11T04:38:36.339Z,1.36
2019-03-11T04:40:43.781Z,1.43
2019-03-11T04:42:51.409Z,1.44
2019-03-11T04:44:58.899Z,1.34
2019-03-11T04:47:06.388Z,1.37
2019-03-11T04:49:13.944Z,1.40
2019-03-11T04:51:21.350Z,1.41
2019-03-11T04:53:28.637Z,1.36
2019-03-11T04:55:36.016Z,1.39
2019-03-11T04:57:57.923Z,1.41
2019-03-11T05:00:05.875Z,1.44
2019-03-11T05:02:13.293Z,1.35
2019-03-11T05:04:20.735Z,1.43
2019-03-11T05:06:28.090Z,1.41
2019-03-11T05:08:35.440Z,1.44
2019-03-11T05:10:42.738Z,1.35
2019-03-11T05:12:50.227Z,1.38
2019-03-11T05:14:57.608Z,1.40
2019-03-11T05:17:04.978Z,1.39
2019-03-11T05:19:12.372Z,1.39
2019-03-11T05:21:19.723Z,1.37
2019-03-11T05:23:27.467Z,1.37
2019-03-11T05:25:34.914Z,1.35
2019-03-11T05:27:42.377Z,1.38
2019-03-11T05:29:49.718Z,1.40
2019-03-11T05:31:57.028Z,1.38
2019-03-11T05:34:04.349Z,1.39
2019-03-11T05:36:11.703Z,1.44
2019-03-11T05:38:19.035Z,1.45
2019-03-11T05:40:26.378Z,1.46
2019-03-11T05:42:33.702Z,1.49
2019-03-11T05:44:41.134Z,1.60
2019-03-11T05:46:48.494Z,1.62
2019-03-11T05:48:55.905Z,1.64
2019-03-11T05:51:03.227Z,1.61
2019-03-11T05:53:10.610Z,1.56
2019-03-11T05:55:18.328Z,1.56
2019-03-11T05:57:25.756Z,1.54
2019-03-11T05:59:33.087Z,1.55
2019-03-11T06:01:40.523Z,1.53
2019-03-11T06:03:48.008Z,1.57
2019-03-11T06:05:55.350Z,1.57
2019-03-11T06:08:02.752Z,1.52
2019-03-11T06:10:11.571Z,1.55
2019-03-11T06:12:18.975Z,1.57
2019-03-11T06:14:26.364Z,1.54
2019-03-11T06:16:34.236Z,1.59
2019-03-11T06:18:47.503Z,1.68
2019-03-11T06:21:13.686Z,1.70
2019-03-11T06:23:21.190Z,1.67
2019-03-11T06:25:28.609Z,1.70
2019-03-11T06:27:36.002Z,1.76
2019-03-11T06:29:43.399Z,1.74
2019-03-11T06:31:50.817Z,1.72
2019-03-11T06:33:58.176Z,1.77
2019-03-11T06:36:05.533Z,1.79
2019-03-11T06:38:12.877Z,1.79
2019-03-11T06:40:20.362Z,1.75
2019-03-11T06:42:27.712Z,1.78
2019-03-11T06:44:35.028Z,1.82
2019-03-11T06:46:42.360Z,1.80
2019-03-11T06:48:49.697Z,1.83
2019-03-11T06:50:56.997Z,1.78
2019-03-11T06:53:04.410Z,1.77
2019-03-11T06:55:12.146Z,1.79
2019-03-11T06:57:19.508Z,1.93
2019-03-11T06:59:26.866Z,1.93
2019-03-11T07:01:34.291Z,1.93
2019-03-11T07:03:41.679Z,2.00
2019-03-11T07:05:49.077Z,1.92
2019-03-11T07:07:56.394Z,1.94
2019-03-11T07:10:03.765Z,1.97
2019-03-11T07:12:11.278Z,1.99
2019-03-11T07:14:18.783Z,1.97
2019-03-11T07:16:26.160Z,2.04
2019-03-11T07:18:33.545Z,2.03
2019-03-11T07:20:40.904Z,1.97
2019-03-11T07:22:48.380Z,1.97
2019-03-11T07:24:56.791Z,2.05
2019-03-11T07:27:04.069Z,2.06
2019-03-11T07:29:11.485Z,2.09
2019-03-11T07:31:18.843Z,2.06
2019-03-11T07:33:26.212Z,2.12
2019-03-11T07:35:33.614Z,2.14
2019-03-11T07:37:40.974Z,2.18
2019-03-11T07:39:48.399Z,2.15
2019-03-11T07:41:55.845Z,2.04
2019-03-11T07:44:03.161Z,2.11
2019-03-11T07:46:10.679Z,2.27
2019-03-11T07:48:18.072Z,2.40
2019-03-11T07:50:25.505Z,2.26
2019-03-11T07:52:32.988Z,2.31
2019-03-11T07:54:40.526Z,2.31
2019-03-11T07:56:47.872Z,2.38
2019-03-11T07:58:55.314Z,2.37
2019-03-11T08:01:03.647Z,2.45
2019-03-11T08:03:10.989Z,2.57
2019-03-11T08:05:18.723Z,2.64
2019-03-11T08:07:27.525Z,2.46
2019-03-11T08:09:38.183Z,2.40
2019-03-11T08:11:44.680Z,2.33
2019-03-11T08:13:52.013Z,2.52
2019-03-11T08:15:59.311Z,2.53
2019-03-11T08:18:06.730Z,2.54
2019-03-11T08:20:14.395Z,2.49
2019-03-11T08:22:21.716Z,2.44
2019-03-11T08:24:29.061Z,2.36
2019-03-11T08:26:36.363Z,2.39
2019-03-11T08:28:43.822Z,2.30
2019-03-11T08:30:51.186Z,2.30
2019-03-11T08:32:58.550Z,2.30
2019-03-11T08:35:06.327Z,2.39
2019-03-11T08:37:13.706Z,2.51
2019-03-11T08:39:21.133Z,2.49
2019-03-11T08:41:28.527Z,2.70
2019-03-11T08:43:35.975Z,2.71
2019-03-11T08:45:43.364Z,2.68
2019-03-11T08:47:50.812Z,2.74
2019-03-11T08:49:58.190Z,2.69
2019-03-11T08:52:06.185Z,2.76
2019-03-11T08:54:13.629Z,2.88
2019-03-11T08:56:20.972Z,2.92
2019-03-11T08:58:28.322Z,2.84
2019-03-11T09:00:35.709Z,3.00
2019-03-11T09:02:43.537Z,3.04
2019-03-11T09:04:51.063Z,2.92
2019-03-11T09:06:58.393Z,2.82
2019-03-11T09:09:07.822Z,2.82
2019-03-11T09:11:15.277Z,2.80
2019-03-11T09:13:22.730Z,2.80
2019-03-11T09:15:30.157Z,2.86
2019-03-11T09:17:37.543Z,2.81
2019-03-11T09:19:44.985Z,2.81
2019-03-11T09:21:52.397Z,2.79
2019-03-11T09:23:59.814Z,2.96
2019-03-11T09:26:07.340Z,2.93
2019-03-11T09:28:14.615Z,2.89
2019-03-11T09:30:22.525Z,2.88
2019-03-11T09:32:29.991Z,2.94
2019-03-11T09:34:37.347Z,2.98
2019-03-11T09:36:44.809Z,2.83
2019-03-11T09:38:52.348Z,2.92
2019-03-11T09:40:59.793Z,3.01
2019-03-11T09:43:07.495Z,3.17
2019-03-11T09:45:16.847Z,3.04
2019-03-11T09:47:24.350Z,2.92
2019-03-11T09:49:31.737Z,2.85
2019-03-11T09:51:39.149Z,2.81
2019-03-11T09:53:46.567Z,2.80
2019-03-11T09:55:53.946Z,2.77
2019-03-11T09:58:01.273Z,2.82
2019-03-11T10:00:14.236Z,3.03
2019-03-11T10:02:21.596Z,3.11
2019-03-11T10:04:29.044Z,3.23
2019-03-11T10:06:36.417Z,3.53
2019-03-11T10:08:43.679Z,3.58
2019-03-11T10:10:51.096Z,3.77
2019-03-11T10:12:58.332Z,3.88
2019-03-11T10:15:06.644Z,4.21
2019-03-11T10:17:14.032Z,4.26
2019-03-11T10:19:21.341Z,4.35
2019-03-11T10:21:28.598Z,4.39
2019-03-11T10:23:35.928Z,4.68
2019-03-11T10:25:43.298Z,4.43
2019-03-11T10:27:51.845Z,4.44
2019-03-11T10:29:59.281Z,4.27
2019-03-11T10:32:06.621Z,4.42
2019-03-11T10:34:14.007Z,4.48
2019-03-11T10:36:21.361Z,4.31
2019-03-11T10:38:28.830Z,4.31
2019-03-11T10:40:36.317Z,4.56
2019-03-11T10:42:43.777Z,4.53
2019-03-11T10:44:51.309Z,4.45
2019-03-11T10:46:58.800Z,4.59
2019-03-11T10:49:06.169Z,4.65
2019-03-11T10:51:13.702Z,4.77
2019-03-11T10:53:21.142Z,4.82
2019-03-11T10:55:28.643Z,4.98
2019-03-11T10:57:36.070Z,4.73
2019-03-11T10:59:43.373Z,4.73
2019-03-11T11:01:50.866Z,4.83
2019-03-11T11:03:58.343Z,4.77
2019-03-11T11:06:06.128Z,4.86
2019-03-11T11:08:13.472Z,4.79
2019-03-11T11:10:21.248Z,5.02
2019-03-11T11:12:28.658Z,4.88
2019-03-11T11:14:36.012Z,4.85
2019-03-11T11:16:43.353Z,5.17
2019-03-11T11:18:50.713Z,5.25
2019-03-11T11:20:58.094Z,5.41
2019-03-11T11:23:05.856Z,5.38
2019-03-11T11:25:16.246Z,5.31
2019-03-11T11:27:23.718Z,5.33
2019-03-11T11:29:31.121Z,5.08
2019-03-11T11:31:38.533Z,5.14
2019-03-11T11:33:45.910Z,5.30
2019-03-11T11:35:53.350Z,5.51
2019-03-11T11:38:00.756Z,5.40
2019-03-11T11:40:12.261Z,5.36
2019-03-11T11:42:19.639Z,5.31
2019-03-11T11:44:26.971Z,5.26
2019-03-11T11:46:34.454Z,5.29
2019-03-11T11:48:41.876Z,5.48
2019-03-11T11:50:49.203Z,5.43
2019-03-11T11:52:56.795Z,5.40
2019-03-11T11:55:04.222Z,5.65
2019-03-11T11:57:11.605Z,5.51
2019-03-11T11:59:18.955Z,5.55
2019-03-11T12:01:26.415Z,5.86
2019-03-11T12:03:33.885Z,5.89
2019-03-11T12:05:41.282Z,5.92
2019-03-11T12:07:49.035Z,6.11
2019-03-11T12:09:56.346Z,6.38
2019-03-11T12:12:05.976Z,6.37
2019-03-11T12:14:13.098Z,6.27
2019-03-11T12:16:20.490Z,6.05
2019-03-11T12:18:27.777Z,5.68
2019-03-11T12:20:35.193Z,5.69
2019-03-11T12:22:42.904Z,5.41
2019-03-11T12:24:50.460Z,5.48
2019-03-11T12:26:58.279Z,5.58
2019-03-11T12:29:05.640Z,5.48
2019-03-11T12:31:12.877Z,5.62
2019-03-11T12:33:20.596Z,5.60
2019-03-11T12:35:28.245Z,5.29
2019-03-11T12:37:35.622Z,5.16
2019-03-11T12:39:42.964Z,5.31
2019-03-11T12:41:50.332Z,5.27
2019-03-11T12:43:57.653Z,5.25
2019-03-11T12:46:05.013Z,5.11
2019-03-11T12:48:12.335Z,4.90
2019-03-11T12:50:20.968Z,4.87
2019-03-11T12:52:28.340Z,4.99
2019-03-11T12:54:35.677Z,4.87
2019-03-11T12:56:43.101Z,4.88
2019-03-11T12:58:50.531Z,4.89
2019-03-11T13:00:57.889Z,5.04
2019-03-11T13:03:05.503Z,5.16
2019-03-11T13:05:13.105Z,4.95
2019-03-11T13:07:20.501Z,4.85
2019-03-11T13:09:27.860Z,4.85
2019-03-11T13:11:35.266Z,4.85
2019-03-11T13:13:42.578Z,4.76
2019-03-11T13:15:49.865Z,4.76
2019-03-11T13:17:57.227Z,4.91
2019-03-11T13:20:04.798Z,4.94
2019-03-11T13:22:12.215Z,4.82
2019-03-11T13:24:19.569Z,4.76
2019-03-11T13:26:26.915Z,4.74
2019-03-11T13:28:34.242Z,4.77
2019-03-11T13:30:41.548Z,4.74
2019-03-11T13:32:49.030Z,4.74
2019-03-11T13:34:56.391Z,4.80
2019-03-11T13:37:03.913Z,4.94
2019-03-11T13:39:12.260Z,5.13
2019-03-11T13:41:19.586Z,5.31
2019-03-11T13:43:26.988Z,5.73
2019-03-11T13:45:34.424Z,5.78
2019-03-11T13:47:41.882Z,6.05
2019-03-11T13:49:49.436Z,5.86
2019-03-11T13:51:56.688Z,5.77
2019-03-11T13:54:04.026Z,5.83
2019-03-11T13:56:11.417Z,5.70
2019-03-11T13:58:18.631Z,5.66
2019-03-11T14:00:26.054Z,5.50
2019-03-11T14:02:33.456Z,5.39
2019-03-11T14:04:41.659Z,5.34
2019-03-11T14:06:49.331Z,5.21
2019-03-11T14:08:56.632Z,5.12
2019-03-11T14:11:04.041Z,5.12
2019-03-11T14:13:11.469Z,5.16
2019-03-11T14:15:18.978Z,5.17
2019-03-11T14:17:26.327Z,5.20
2019-03-11T14:19:33.662Z,5.28
2019-03-11T14:21:40.994Z,5.30
2019-03-11T14:23:48.416Z,5.40
2019-03-11T14:25:55.959Z,5.33
2019-03-11T14:28:03.348Z,5.15
2019-03-11T14:30:12.346Z,5.06
2019-03-11T14:32:20.185Z,5.03
2019-03-11T14:34:27.686Z,4.93
2019-03-11T14:36:35.131Z,4.90
2019-03-11T14:38:42.523Z,4.89
2019-03-11T14:40:49.967Z,4.85
2019-03-11T14:42:57.407Z,4.82
2019-03-11T14:45:05.329Z,4.82
2019-03-11T14:47:12.881Z,4.79
2019-03-11T14:49:20.225Z,4.77
2019-03-11T14:51:27.592Z,4.78
2019-03-11T14:53:34.924Z,4.80
2019-03-11T14:55:42.297Z,4.83
2019-03-11T14:57:49.724Z,4.87
2019-03-11T14:59:57.109Z,4.88
2019-03-11T15:02:04.510Z,4.89
2019-03-11T15:04:12.014Z,4.84
2019-03-11T15:06:19.358Z,4.84
2019-03-11T15:08:26.711Z,4.81
2019-03-11T15:10:34.049Z,4.80
2019-03-11T15:12:41.612Z,4.79
2019-03-11T15:14:48.918Z,4.79
2019-03-11T15:16:56.212Z,4.77
2019-03-11T15:19:03.841Z,4.74
2019-03-11T15:21:11.295Z,4.73
2019-03-11T15:23:20.926Z,4.73
2019-03-11T15:25:28.106Z,4.67
2019-03-11T15:27:35.559Z,4.69
2019-03-11T15:29:43.050Z,4.66
2019-03-11T15:31:50.388Z,4.63
2019-03-11T15:33:57.798Z,4.63
2019-03-11T15:36:06.286Z,4.64
2019-03-11T15:38:13.791Z,4.61
2019-03-11T15:40:21.253Z,4.59
2019-03-11T15:42:28.623Z,4.61
2019-03-11T15:44:36.180Z,4.58
2019-03-11T15:46:43.781Z,4.56
2019-03-11T15:48:51.013Z,4.54
2019-03-11T15:50:58.478Z,4.53
2019-03-11T15:53:05.853Z,4.53
2019-03-11T15:55:14.623Z,4.54
2019-03-11T15:57:22.223Z,4.51
2019-03-11T15:59:29.703Z,4.50
2019-03-11T16:01:37.067Z,4.49
2019-03-11T16:03:44.518Z,4.47
2019-03-11T16:05:51.876Z,4.44
2019-03-11T16:07:59.164Z,4.41
2019-03-11T16:10:16.374Z,4.39
2019-03-11T16:12:16.495Z,4.33
2019-03-11T16:14:23.977Z,4.26
2019-03-11T16:16:32.521Z,4.21
2019-03-11T16:18:40.269Z,4.13
2019-03-11T16:20:47.824Z,4.05
2019-03-11T16:22:55.241Z,4.04
2019-03-11T16:25:02.624Z,3.95
2019-03-11T16:27:09.963Z,3.93
2019-03-11T16:29:17.468Z,3.89
2019-03-11T16:31:25.284Z,3.77
2019-03-11T16:33:34.117Z,3.75
2019-03-11T16:35:41.908Z,3.69
2019-03-11T16:37:49.306Z,3.71
2019-03-11T16:39:58.638Z,3.66
2019-03-11T16:42:05.791Z,3.63
2019-03-11T16:44:13.140Z,3.58
2019-03-11T16:46:20.551Z,3.59
2019-03-11T16:48:27.920Z,3.55
2019-03-11T16:50:35.320Z,3.55
2019-03-11T16:52:42.892Z,3.59
2019-03-11T16:54:50.308Z,3.54
2019-03-11T16:56:57.731Z,3.48
2019-03-11T16:59:05.231Z,3.46
2019-03-11T17:01:12.914Z,3.48
2019-03-11T17:03:20.373Z,3.45
2019-03-11T17:05:28.202Z,3.44
2019-03-11T17:07:35.787Z,3.48
2019-03-11T17:09:43.330Z,3.42
2019-03-11T17:11:50.939Z,3.41
2019-03-11T17:13:58.529Z,3.35
2019-03-11T17:16:06.049Z,3.41
2019-03-11T17:18:13.449Z,3.40
2019-03-11T17:20:21.884Z,3.39
2019-03-11T17:22:29.316Z,3.37
2019-03-11T17:24:36.665Z,3.27
2019-03-11T17:26:44.033Z,3.30
2019-03-11T17:28:51.444Z,3.30
2019-03-11T17:30:58.875Z,3.32
2019-03-11T17:33:06.508Z,3.31
2019-03-11T17:35:14.862Z,3.27
2019-03-11T17:37:22.469Z,3.31
2019-03-11T17:39:29.927Z,3.21
2019-03-11T17:41:37.571Z,3.24
2019-03-11T17:43:45.083Z,3.21
2019-03-11T17:45:52.736Z,3.19
2019-03-11T17:48:00.144Z,3.22
2019-03-11T17:50:10.256Z,3.16
2019-03-11T17:52:17.952Z,3.17
2019-03-11T17:54:25.245Z,3.12
2019-03-11T17:56:32.720Z,3.11
2019-03-11T17:58:40.320Z,3.17
2019-03-11T18:00:55.384Z,3.11
2019-03-11T18:02:58.461Z,3.11
2019-03-11T18:05:06.657Z,3.10
2019-03-11T18:07:14.268Z,3.13
2019-03-11T18:09:22.226Z,3.11
2019-03-11T18:11:29.665Z,3.08
2019-03-11T18:13:37.199Z,3.04
2019-03-11T18:15:44.635Z,2.97
2019-03-11T18:17:52.297Z,2.97
2019-03-11T18:19:59.744Z,2.93
2019-03-11T18:22:07.201Z,2.95
2019-03-11T18:24:15.253Z,3.00
2019-03-11T18:26:23.237Z,2.95
2019-03-11T18:28:30.889Z,2.91
2019-03-11T18:30:39.317Z,2.96
2019-03-11T18:32:46.760Z,2.94
2019-03-11T18:34:54.124Z,2.92
2019-03-11T18:37:01.648Z,2.91
2019-03-11T18:39:10.809Z,2.95
2019-03-11T18:41:18.330Z,2.90
2019-03-11T18:43:25.773Z,2.85
2019-03-11T18:45:33.459Z,2.86
2019-03-11T18:47:40.892Z,2.74
2019-03-11T18:49:48.369Z,2.70
2019-03-11T18:51:55.850Z,2.68
2019-03-11T18:54:03.382Z,2.69
2019-03-11T18:56:10.772Z,2.72
2019-03-11T18:58:18.197Z,2.64
2019-03-11T19:00:25.855Z,2.66
2019-03-11T19:02:33.227Z,2.56
2019-03-11T19:04:54.188Z,2.59
2019-03-11T19:07:01.664Z,2.56
2019-03-11T19:09:11.712Z,2.59
2019-03-11T19:11:19.324Z,2.54
2019-03-11T19:13:26.834Z,2.55
2019-03-11T19:15:34.460Z,2.52
2019-03-11T19:17:43.273Z,2.50
2019-03-11T19:19:50.859Z,2.46
2019-03-11T19:21:58.303Z,2.52
2019-03-11T19:24:05.879Z,2.51
2019-03-11T19:26:14.280Z,2.42
2019-03-11T19:28:22.095Z,2.44
2019-03-11T19:30:29.733Z,2.37
2019-03-11T19:32:37.418Z,2.44
2019-03-11T19:34:45.407Z,2.39
2019-03-11T19:36:53.177Z,2.29
2019-03-11T19:39:00.723Z,2.36
2019-03-11T19:41:08.413Z,2.35
2019-03-11T19:43:16.093Z,2.30
2019-03-11T19:45:23.777Z,2.25
2019-03-11T19:47:31.292Z,2.29
2019-03-11T19:49:39.079Z,2.23
2019-03-11T19:51:46.730Z,2.24
2019-03-11T19:53:55.169Z,2.26
2019-03-11T19:56:02.807Z,2.32
2019-03-11T19:58:10.594Z,2.38
2019-03-11T20:00:20.242Z,2.28
2019-03-11T20:02:28.313Z,2.29
2019-03-11T20:04:36.130Z,2.25
2019-03-11T20:06:43.678Z,2.26
2019-03-11T20:08:51.297Z,2.22
2019-03-11T20:10:59.118Z,2.22
2019-03-11T20:13:06.935Z,2.23
2019-03-11T20:15:15.356Z,2.24
2019-03-11T20:17:22.870Z,2.26
2019-03-11T20:19:30.495Z,2.34
2019-03-11T20:21:38.110Z,2.22
2019-03-11T20:23:45.720Z,2.27
2019-03-11T20:25:53.306Z,2.30
2019-03-11T20:28:01.608Z,2.22
2019-03-11T20:30:13.135Z,2.16
2019-03-11T20:32:20.702Z,2.27
2019-03-11T20:34:28.289Z,2.20
2019-03-11T20:36:36.147Z,2.15
2019-03-11T20:38:43.890Z,2.15
2019-03-11T20:40:51.886Z,2.13
2019-03-11T20:42:59.456Z,2.24
2019-03-11T20:45:07.813Z,2.19
2019-03-11T20:47:15.287Z,2.16
2019-03-11T20:49:22.780Z,2.08
2019-03-11T20:51:30.515Z,2.14
2019-03-11T20:53:38.099Z,2.23
2019-03-11T20:55:45.535Z,2.12
2019-03-11T20:57:53.406Z,2.05
2019-03-11T21:00:00.845Z,2.08
2019-03-11T21:02:08.444Z,2.05
2019-03-11T21:04:16.118Z,2.10
2019-03-11T21:06:23.587Z,2.02
2019-03-11T21:08:31.063Z,2.08
2019-03-11T21:10:38.427Z,2.07
2019-03-11T21:12:46.453Z,2.08
2019-03-11T21:14:53.823Z,2.04
2019-03-11T21:17:02.133Z,2.04
2019-03-11T21:19:09.651Z,2.02
2019-03-11T21:21:17.063Z,2.07
2019-03-11T21:23:26.213Z,1.99
2019-03-11T21:25:34.103Z,2.01
2019-03-11T21:27:41.703Z,2.10
2019-03-11T21:29:49.201Z,2.16
2019-03-11T21:31:56.638Z,2.09
2019-03-11T21:34:04.076Z,2.09
2019-03-11T21:36:11.551Z,2.14
2019-03-11T21:38:19.075Z,2.16
2019-03-11T21:40:27.021Z,2.19
2019-03-11T21:42:37.608Z,2.19
2019-03-11T21:44:44.073Z,2.20
2019-03-11T21:46:51.593Z,2.25
2019-03-11T21:48:59.071Z,2.23
2019-03-11T21:51:06.582Z,2.26
2019-03-11T21:53:14.092Z,2.24
2019-03-11T21:55:21.781Z,2.22
2019-03-11T21:57:29.513Z,2.22
2019-03-11T21:59:37.111Z,2.22
2019-03-11T22:01:44.627Z,2.26
2019-03-11T22:03:52.429Z,2.29
2019-03-11T22:06:00.133Z,2.30
2019-03-11T22:08:07.772Z,2.30
2019-03-11T22:10:16.214Z,2.26
2019-03-11T22:12:23.914Z,2.26
2019-03-11T22:14:31.797Z,2.29
2019-03-11T22:16:39.315Z,2.28
2019-03-11T22:18:46.706Z,2.31
2019-03-11T22:20:54.140Z,2.29
2019-03-11T22:23:01.653Z,2.30
2019-03-11T22:25:10.647Z,2.29
2019-03-11T22:27:18.129Z,2.31
2019-03-11T22:29:25.514Z,2.29
2019-03-11T22:31:33.048Z,2.32
2019-03-11T22:33:40.479Z,2.28
2019-03-11T22:35:48.000Z,2.25
2019-03-11T22:37:55.875Z,2.35
2019-03-11T22:40:05.814Z,2.27
2019-03-11T22:42:12.642Z,2.33
2019-03-11T22:44:20.271Z,2.27
2019-03-11T22:46:27.763Z,2.27
2019-03-11T22:48:36.160Z,2.21
2019-03-11T22:50:43.537Z,2.22
2019-03-11T22:52:50.872Z,2.23
2019-03-11T22:54:58.270Z,2.29
2019-03-11T22:57:05.746Z,2.23
2019-03-11T22:59:13.069Z,2.25
2019-03-11T23:01:22.559Z,2.28
2019-03-11T23:03:30.182Z,2.28
2019-03-11T23:05:37.540Z,2.30
2019-03-11T23:07:44.929Z,2.32
2019-03-11T23:09:52.490Z,2.24
2019-03-11T23:12:00.049Z,2.29
2019-03-11T23:14:07.607Z,2.25
2019-03-11T23:16:15.142Z,2.23
2019-03-11T23:18:22.585Z,2.21
2019-03-11T23:20:29.967Z,2.22
2019-03-11T23:22:37.576Z,2.31
2019-03-11T23:24:44.969Z,2.24
2019-03-11T23:26:52.298Z,2.27
2019-03-11T23:28:59.754Z,2.29
2019-03-11T23:31:07.116Z,2.21
2019-03-11T23:33:14.520Z,2.26
2019-03-11T23:35:21.965Z,2.27
2019-03-11T23:37:29.343Z,2.38
2019-03-11T23:39:36.824Z,2.28
2019-03-11T23:41:44.487Z,2.32
2019-03-11T23:43:51.838Z,2.32
2019-03-11T23:45:59.368Z,2.30
2019-03-11T23:48:06.747Z,2.28
2019-03-11T23:50:14.230Z,2.31
2019-03-11T23:52:21.562Z,2.27
2019-03-11T23:54:28.846Z,2.33
2019-03-11T23:56:36.171Z,2.36
2019-03-11T23:58:43.489Z,2.31
